Terminal Aerodrome Forecast
Issued by NWS

Home | Current Version | Previous Version | Graphics & Text | Print | Product List | Glossary On
Versions: 1 2 3 4 5 6 7 8 9 10 11 12 13 14 15 16 17
000
FTUS41 KCLE 171100 AAB
TAFFDY
TAF AMD
KFDY 171106Z 1711/1806 27006KT 1/4SM FG VV002
      TEMPO 1712/1713 2SM BR SCT004
     FM171300 33005KT 4SM BR SCT008
     FM171400 33006KT P6SM SKC
     FM180000 21004KT P6SM SKC=

USA.gov is the U.S. government's official web portal to all federal, state and local government web resources and services.